Time;durP1;ratioP1;P1;durP2;ratioP2;P2;SDS_P1;SDS_P2;PMS_P1;PMS_P2;Temp;Humidity;BMP_temperature;BMP_pressure;BME280_temperature;BME280_humidity;BME280_pressure;Samples;Min_cycle;Max_cycle;Signal;HPM_P1;HPM_P2
2022/03/09 00:02:02;;;;;;;222.93;52.08;;;25.20;99.90;;;;;;5044234;28;20434;-61
2022/03/09 00:04:31;;;;;;;180.00;43.90;;;25.30;99.90;;;;;;5047187;28;20043;-61
2022/03/09 00:06:57;;;;;;;185.18;54.03;;;25.40;99.90;;;;;;5055316;28;20427;-60
2022/03/09 00:09:24;;;;;;;155.77;75.05;;;25.50;99.90;;;;;;5049011;28;20087;-61
2022/03/09 00:11:51;;;;;;;81.90;36.88;;;25.50;99.90;;;;;;5048068;28;20052;-61
2022/03/09 00:14:18;;;;;;;116.78;51.35;;;25.40;99.90;;;;;;5048271;28;20059;-61
2022/03/09 00:16:45;;;;;;;114.75;53.60;;;25.30;99.90;;;;;;5048185;28;20102;-61
2022/03/09 00:19:11;;;;;;;146.02;66.40;;;25.50;99.90;;;;;;5046428;28;20025;-61
2022/03/09 00:21:38;;;;;;;42.53;20.77;;;25.60;99.90;;;;;;5046768;28;20288;-61
2022/03/09 00:24:05;;;;;;;19.35;9.45;;;25.60;99.90;;;;;;5050242;28;20030;-62
2022/03/09 00:26:32;;;;;;;30.13;10.88;;;25.70;99.90;;;;;;5050088;28;20481;-62
2022/03/09 00:29:19;;;;;;;22.80;7.22;;;25.70;99.90;;;;;;5047783;28;20029;-62
2022/03/09 00:31:47;;;;;;;14.63;7.90;;;25.60;99.90;;;;;;5049546;28;20022;-61
2022/03/09 00:34:14;;;;;;;29.75;22.88;;;25.60;99.90;;;;;;5050634;28;20095;-63
2022/03/09 00:36:40;;;;;;;20.15;11.93;;;25.60;99.90;;;;;;5054813;28;20198;-61
2022/03/09 00:39:07;;;;;;;9.63;7.85;;;25.60;99.90;;;;;;5047884;28;20032;-62
2022/03/09 00:41:34;;;;;;;26.45;18.38;;;25.50;99.90;;;;;;5047954;28;20024;-62
2022/03/09 00:44:01;;;;;;;24.52;17.00;;;25.60;99.90;;;;;;5048967;28;20060;-62
2022/03/09 00:46:34;;;;;;;22.05;14.20;;;25.50;99.90;;;;;;5048539;28;20099;-63
2022/03/09 00:49:02;;;;;;;27.15;12.45;;;25.60;99.90;;;;;;5048614;28;20024;-61
2022/03/09 00:51:28;;;;;;;19.55;11.85;;;25.60;99.90;;;;;;5048705;28;20021;-62
2022/03/09 00:53:55;;;;;;;80.60;56.50;;;25.60;99.90;;;;;;5047597;28;20035;-61
2022/03/09 00:56:22;;;;;;;25.02;15.45;;;25.60;99.90;;;;;;5046038;28;20036;-59
2022/03/09 00:58:49;;;;;;;14.70;10.10;;;25.70;99.90;;;;;;5046032;28;20029;-62
2022/03/09 01:01:15;;;;;;;17.58;12.27;;;25.70;99.90;;;;;;5051350;28;20343;-61
2022/03/09 01:03:42;;;;;;;30.23;20.52;;;25.60;99.90;;;;;;5054006;28;20385;-61
2022/03/09 01:06:09;;;;;;;34.30;24.83;;;25.60;99.90;;;;;;5046530;28;20021;-61
2022/03/09 01:08:39;;;;;;;40.17;31.40;;;25.50;99.90;;;;;;5047658;28;20454;-61
2022/03/09 01:11:05;;;;;;;41.38;31.80;;;25.50;99.90;;;;;;5048190;28;20124;-63
2022/03/09 01:13:32;;;;;;;39.83;34.67;;;25.60;99.90;;;;;;5045237;28;20224;-61
2022/03/09 01:15:59;;;;;;;44.30;35.70;;;25.60;99.90;;;;;;5052140;28;20390;-62
2022/03/09 01:18:25;;;;;;;72.60;57.83;;;25.60;99.90;;;;;;5056560;28;20036;-62
2022/03/09 01:20:52;;;;;;;28.08;23.88;;;25.70;99.90;;;;;;5056116;28;20033;-62
2022/03/09 01:23:19;;;;;;;35.17;24.05;;;25.60;99.90;;;;;;5055975;28;20104;-62
2022/03/09 01:25:45;;;;;;;67.28;41.85;;;25.70;99.90;;;;;;5056164;28;20036;-62
2022/03/09 01:28:12;;;;;;;39.05;28.20;;;25.70;99.90;;;;;;5055470;28;20029;-62
2022/03/09 01:30:39;;;;;;;37.30;26.80;;;25.80;99.90;;;;;;5056016;28;20075;-62
2022/03/09 01:33:06;;;;;;;37.92;30.60;;;25.80;99.90;;;;;;5055600;28;20440;-62
2022/03/09 01:35:32;;;;;;;51.00;40.28;;;25.70;99.90;;;;;;5052477;28;20030;-62
2022/03/09 01:37:59;;;;;;;46.72;39.65;;;25.70;99.90;;;;;;5048523;28;20026;-62
2022/03/09 01:40:26;;;;;;;49.20;39.17;;;25.70;99.90;;;;;;5039542;28;20028;-61
2022/03/09 01:42:53;;;;;;;43.60;35.95;;;25.60;99.90;;;;;;5054880;28;20036;-62
2022/03/09 01:45:20;;;;;;;40.17;31.08;;;25.60;99.90;;;;;;5055743;28;20032;-61
2022/03/09 01:47:48;;;;;;;31.05;20.80;;;25.60;99.90;;;;;;5055399;28;20047;-61
2022/03/09 01:50:15;;;;;;;22.15;17.15;;;25.50;99.90;;;;;;5055614;28;20461;-61
2022/03/09 01:52:43;;;;;;;21.23;14.27;;;25.40;99.90;;;;;;5055429;28;20059;-60
2022/03/09 01:55:11;;;;;;;13.52;9.13;;;25.40;99.90;;;;;;5055001;28;20457;-61
2022/03/09 01:57:40;;;;;;;8.88;6.55;;;25.50;99.90;;;;;;5054750;28;20474;-61
2022/03/09 02:00:07;;;;;;;10.07;5.72;;;25.40;99.90;;;;;;5055092;28;20056;-61
2022/03/09 02:02:34;;;;;;;10.63;5.30;;;25.50;99.90;;;;;;5055497;28;20052;-61
2022/03/09 02:05:01;;;;;;;6.82;3.83;;;25.50;99.90;;;;;;5048506;28;20021;-61
2022/03/09 02:10:08;;;;;;;8.85;4.60;;;25.70;99.90;;;;;;5051826;28;20025;-62
2022/03/09 02:12:35;;;;;;;12.35;5.25;;;25.80;99.90;;;;;;5054735;28;20056;-61
2022/03/09 02:15:03;;;;;;;7.80;4.13;;;25.90;99.90;;;;;;5054935;28;20521;-61
2022/03/09 02:17:30;;;;;;;12.63;5.47;;;26.00;99.90;;;;;;5047313;28;20044;-61
2022/03/09 02:19:58;;;;;;;9.70;4.88;;;26.00;99.90;;;;;;5044065;28;20389;-61
2022/03/09 02:22:38;;;;;;;6.07;4.40;;;26.10;99.90;;;;;;5045723;28;20436;-61
2022/03/09 02:25:08;;;;;;;11.73;5.00;;;26.20;99.90;;;;;;5045593;28;20025;-62
2022/03/09 02:27:35;;;;;;;6.47;4.53;;;26.30;99.90;;;;;;5045092;28;20049;-61
2022/03/09 02:30:02;;;;;;;8.82;3.50;;;26.30;99.90;;;;;;5048336;28;20029;-61
2022/03/09 02:32:29;;;;;;;4.95;3.33;;;26.30;99.90;;;;;;5049108;28;20025;-62
2022/03/09 02:34:56;;;;;;;7.45;4.22;;;26.30;99.90;;;;;;5043785;28;20083;-62
2022/03/09 02:37:23;;;;;;;6.88;3.38;;;26.50;99.90;;;;;;5045562;28;20033;-62
2022/03/09 02:39:49;;;;;;;7.20;3.40;;;26.50;99.90;;;;;;5045032;28;20040;-61
2022/03/09 02:42:16;;;;;;;4.97;3.38;;;26.50;99.90;;;;;;5044279;28;20289;-61
2022/03/09 02:44:43;;;;;;;11.05;4.10;;;26.50;99.90;;;;;;5051340;28;20499;-61
2022/03/09 02:47:10;;;;;;;8.85;3.55;;;26.70;99.90;;;;;;5048673;28;20024;-61
2022/03/09 02:49:37;;;;;;;9.40;4.00;;;26.70;99.90;;;;;;5046251;28;20063;-61
2022/03/09 02:52:04;;;;;;;3.92;3.38;;;26.80;99.90;;;;;;5051591;28;20029;-60
2022/03/09 02:54:30;;;;;;;5.88;3.53;;;26.80;99.90;;;;;;5052297;28;20024;-61
2022/03/09 02:56:57;;;;;;;7.38;3.92;;;26.80;99.90;;;;;;5049040;28;20077;-61
2022/03/09 02:59:24;;;;;;;7.40;4.18;;;26.90;99.90;;;;;;5049613;28;20021;-60
2022/03/09 03:01:50;;;;;;;8.20;5.63;;;26.90;99.90;;;;;;5040053;28;20025;-61
2022/03/09 03:04:18;;;;;;;9.38;7.07;;;27.00;99.90;;;;;;5050273;28;20052;-62
2022/03/09 03:06:45;;;;;;;8.18;5.75;;;27.00;99.90;;;;;;5051608;28;20101;-61
2022/03/09 03:09:11;;;;;;;10.25;6.63;;;27.00;99.90;;;;;;5050579;28;20052;-60
2022/03/09 03:11:38;;;;;;;12.13;7.28;;;27.00;99.90;;;;;;5049182;28;20047;-61
2022/03/09 03:14:05;;;;;;;5.90;3.90;;;27.00;99.90;;;;;;5045810;28;20420;-61
2022/03/09 03:16:31;;;;;;;8.15;4.72;;;27.00;99.90;;;;;;5046772;28;20025;-61
2022/03/09 03:18:58;;;;;;;9.82;5.60;;;27.00;99.90;;;;;;5044872;28;20033;-62
2022/03/09 03:21:25;;;;;;;9.20;7.43;;;27.00;99.90;;;;;;5048854;28;20466;-61
2022/03/09 03:23:51;;;;;;;9.68;4.70;;;27.00;99.90;;;;;;5044575;28;20025;-62
2022/03/09 03:26:18;;;;;;;9.10;4.88;;;27.10;99.90;;;;;;5045979;28;20047;-61
2022/03/09 03:28:45;;;;;;;9.07;4.88;;;27.20;99.90;;;;;;5044276;28;20021;-61
2022/03/09 03:31:11;;;;;;;17.75;13.93;;;27.20;99.90;;;;;;5048736;28;20096;-61
2022/03/09 03:33:38;;;;;;;21.15;10.55;;;27.20;99.90;;;;;;5046609;28;20454;-60
2022/03/09 03:36:05;;;;;;;8.55;6.72;;;27.40;99.90;;;;;;5046515;28;20064;-62
2022/03/09 03:38:32;;;;;;;9.23;6.43;;;27.50;99.90;;;;;;5040556;28;20485;-61
2022/03/09 03:40:58;;;;;;;10.23;7.75;;;27.50;99.90;;;;;;5048049;28;20029;-60
2022/03/09 03:43:25;;;;;;;5.97;5.38;;;27.70;99.90;;;;;;5047768;28;20042;-60
2022/03/09 03:45:52;;;;;;;7.00;5.93;;;27.60;99.90;;;;;;5048212;28;20111;-60
2022/03/09 03:48:18;;;;;;;6.45;5.38;;;27.60;99.90;;;;;;5046624;28;20115;-60
2022/03/09 03:50:45;;;;;;;8.40;5.15;;;27.70;99.90;;;;;;5068448;22;20295;-61
2022/03/09 03:53:12;;;;;;;16.00;11.13;;;27.70;99.90;;;;;;5041124;28;20037;-60
2022/03/09 03:55:38;;;;;;;27.10;14.57;;;27.60;99.90;;;;;;5043750;28;20028;-61
2022/03/09 03:58:05;;;;;;;6.32;5.53;;;27.60;99.90;;;;;;5039244;28;20059;-60
2022/03/09 04:00:32;;;;;;;8.95;6.35;;;27.60;99.90;;;;;;5044487;28;20104;-61
2022/03/09 04:03:00;;;;;;;8.45;5.38;;;27.60;99.90;;;;;;5050614;28;20104;-62
2022/03/09 04:05:28;;;;;;;5.80;5.20;;;27.70;99.90;;;;;;5047523;28;20101;-62
2022/03/09 04:07:54;;;;;;;16.35;7.70;;;27.70;99.90;;;;;;5043031;28;20071;-62
2022/03/09 04:10:21;;;;;;;15.38;7.55;;;27.70;99.90;;;;;;5042965;28;20040;-61
2022/03/09 04:12:48;;;;;;;13.38;9.65;;;27.80;99.90;;;;;;5046131;28;20053;-61
2022/03/09 04:15:14;;;;;;;38.03;29.20;;;27.80;99.90;;;;;;5043699;28;20030;-61
2022/03/09 04:17:43;;;;;;;15.15;9.13;;;27.80;99.90;;;;;;5047815;28;20097;-61
2022/03/09 04:20:11;;;;;;;11.48;7.50;;;27.80;99.90;;;;;;5075074;22;20060;-61
2022/03/09 04:22:38;;;;;;;15.88;7.70;;;27.90;99.90;;;;;;5074068;28;20036;-61
2022/03/09 04:25:05;;;;;;;9.98;6.68;;;27.90;99.90;;;;;;5073829;28;20481;-60
2022/03/09 04:27:32;;;;;;;15.60;10.00;;;27.90;99.90;;;;;;5074091;28;20039;-61
2022/03/09 04:29:59;;;;;;;14.02;8.45;;;27.90;99.90;;;;;;5074067;28;20021;-62
2022/03/09 04:32:26;;;;;;;12.00;7.47;;;27.90;99.90;;;;;;5073920;28;20032;-62
2022/03/09 04:34:53;;;;;;;9.63;7.18;;;28.00;99.90;;;;;;5072748;28;20039;-64
2022/03/09 04:37:20;;;;;;;8.85;7.28;;;28.10;99.90;;;;;;5073685;28;20035;-61
2022/03/09 04:39:48;;;;;;;8.07;7.28;;;28.20;99.90;;;;;;5073650;28;20324;-61
2022/03/09 04:42:15;;;;;;;8.65;7.40;;;28.20;99.90;;;;;;5073385;28;20037;-61
2022/03/09 04:44:42;;;;;;;16.63;8.10;;;28.30;99.90;;;;;;5073812;28;20431;-61
2022/03/09 04:47:08;;;;;;;14.77;9.63;;;28.20;99.90;;;;;;5074563;28;20100;-65
2022/03/09 04:49:35;;;;;;;18.35;16.40;;;28.20;99.90;;;;;;5074039;28;20024;-61
2022/03/09 04:52:02;;;;;;;25.90;19.88;;;28.20;99.90;;;;;;5075349;28;20035;-62
2022/03/09 04:54:28;;;;;;;25.30;22.15;;;28.10;99.90;;;;;;5074234;28;20381;-61
2022/03/09 04:56:55;;;;;;;23.85;18.15;;;28.10;99.90;;;;;;5066949;28;20025;-62
2022/03/09 04:59:22;;;;;;;23.38;16.63;;;28.20;99.90;;;;;;5066428;28;20029;-62
2022/03/09 05:01:48;;;;;;;23.92;17.98;;;28.20;99.90;;;;;;5067410;28;20021;-63
2022/03/09 05:04:15;;;;;;;145.18;98.78;;;28.20;99.90;;;;;;5072575;28;20039;-62
2022/03/09 05:06:42;;;;;;;26.88;22.13;;;28.10;99.90;;;;;;5068851;28;20040;-63
2022/03/09 05:09:09;;;;;;;28.17;19.92;;;28.20;99.90;;;;;;5069627;28;20025;-62
2022/03/09 05:11:35;;;;;;;25.98;21.92;;;28.30;99.90;;;;;;5075045;28;20017;-62
2022/03/09 05:14:02;;;;;;;37.70;23.80;;;28.40;99.90;;;;;;5072417;28;20128;-64
2022/03/09 05:16:29;;;;;;;25.70;19.13;;;28.50;99.90;;;;;;5068298;28;20031;-63
2022/03/09 05:18:55;;;;;;;23.00;18.48;;;28.60;99.90;;;;;;5067460;28;20023;-63
2022/03/09 05:21:22;;;;;;;23.58;18.02;;;28.70;99.90;;;;;;5070842;28;20505;-63
2022/03/09 05:23:49;;;;;;;21.05;17.92;;;28.80;99.90;;;;;;5068204;28;20048;-63
2022/03/09 05:26:15;;;;;;;26.23;17.17;;;28.90;99.90;;;;;;5067584;28;20021;-63
2022/03/09 05:28:42;;;;;;;22.17;17.92;;;29.00;99.90;;;;;;5071291;28;20210;-62
2022/03/09 05:31:09;;;;;;;21.23;16.25;;;29.00;99.90;;;;;;5065966;28;20078;-62
2022/03/09 05:33:35;;;;;;;32.00;17.88;;;29.00;99.90;;;;;;5065981;28;20020;-61
2022/03/09 05:36:02;;;;;;;19.23;14.20;;;29.00;99.90;;;;;;5067125;28;20175;-63
2022/03/09 05:38:29;;;;;;;18.15;13.05;;;29.10;99.90;;;;;;5070251;28;20470;-63
2022/03/09 05:40:56;;;;;;;24.13;15.02;;;29.20;99.90;;;;;;5069117;28;20469;-63
2022/03/09 05:43:23;;;;;;;20.65;14.35;;;29.30;99.90;;;;;;5075141;28;20493;-62
2022/03/09 05:45:50;;;;;;;16.23;12.32;;;29.30;99.90;;;;;;5072494;28;20029;-63
2022/03/09 05:48:16;;;;;;;12.82;11.00;;;29.40;99.90;;;;;;5056073;28;20025;-63
2022/03/09 05:50:43;;;;;;;18.00;12.10;;;29.50;99.90;;;;;;5061178;28;20436;-62
2022/03/09 05:53:10;;;;;;;14.20;11.60;;;29.50;99.90;;;;;;5062339;28;20056;-63
2022/03/09 05:55:36;;;;;;;22.08;12.25;;;29.70;99.90;;;;;;5074357;28;20051;-63
2022/03/09 05:58:04;;;;;;;20.50;13.55;;;29.70;99.90;;;;;;5075787;28;20457;-63
2022/03/09 06:00:31;;;;;;;18.40;12.35;;;29.80;99.90;;;;;;5061706;28;20036;-64
2022/03/09 06:02:57;;;;;;;14.98;11.65;;;29.90;99.90;;;;;;5065241;28;20055;-63
2022/03/09 06:05:24;;;;;;;19.60;13.45;;;29.90;99.90;;;;;;5073450;28;20516;-62
2022/03/09 06:07:51;;;;;;;20.10;11.82;;;30.00;99.90;;;;;;5066818;28;20032;-62
2022/03/09 06:10:18;;;;;;;15.05;11.07;;;30.10;99.90;;;;;;5067598;28;20304;-63
2022/03/09 06:12:44;;;;;;;12.75;10.68;;;30.10;99.90;;;;;;5072080;28;20443;-62
2022/03/09 06:15:11;;;;;;;14.27;12.63;;;30.20;99.90;;;;;;5068513;28;20037;-63
2022/03/09 06:17:48;;;;;;;16.25;11.40;;;30.20;99.90;;;;;;5072330;28;20024;-62
2022/03/09 06:20:18;;;;;;;16.45;11.70;;;30.20;99.90;;;;;;5070892;28;20129;-63
2022/03/09 06:22:47;;;;;;;12.65;10.20;;;30.20;99.90;;;;;;5071209;28;20025;-62
2022/03/09 06:25:17;;;;;;;18.30;11.60;;;30.30;99.90;;;;;;5070626;28;20040;-62
2022/03/09 06:27:49;;;;;;;12.82;10.55;;;30.30;99.90;;;;;;5064397;28;20028;-63
2022/03/09 06:30:16;;;;;;;20.27;13.77;;;30.40;99.90;;;;;;5066747;28;20035;-63
2022/03/09 06:32:45;;;;;;;12.27;10.57;;;30.50;99.90;;;;;;5072166;28;20024;-63
2022/03/09 06:35:13;;;;;;;12.80;10.70;;;30.50;99.90;;;;;;5059995;28;20036;-62
2022/03/09 06:37:40;;;;;;;13.63;9.90;;;30.70;99.90;;;;;;5074091;28;20352;-62
2022/03/09 06:40:08;;;;;;;14.60;10.27;;;30.60;99.90;;;;;;5063621;28;20025;-62
2022/03/09 06:42:35;;;;;;;13.00;10.18;;;30.50;99.90;;;;;;5063876;28;20373;-63
2022/03/09 06:45:02;;;;;;;14.32;9.88;;;30.50;99.90;;;;;;5065404;28;20411;-62
2022/03/09 06:47:29;;;;;;;16.90;10.68;;;30.50;99.90;;;;;;5068028;28;20061;-63
2022/03/09 06:49:55;;;;;;;18.30;11.55;;;30.50;99.90;;;;;;5073098;28;20029;-63
2022/03/09 06:52:22;;;;;;;17.83;10.80;;;30.50;99.90;;;;;;5063806;28;20040;-62
2022/03/09 06:54:49;;;;;;;13.55;10.27;;;30.60;99.90;;;;;;5074727;28;20093;-63
2022/03/09 06:57:16;;;;;;;12.35;10.13;;;30.60;99.90;;;;;;5064284;28;20032;-63
2022/03/09 06:59:44;;;;;;;68.57;44.03;;;30.60;99.90;;;;;;5064452;28;20079;-64
2022/03/09 07:02:11;;;;;;;15.38;11.88;;;30.60;99.90;;;;;;5067904;28;20143;-63
2022/03/09 07:04:37;;;;;;;18.58;10.35;;;30.60;99.90;;;;;;5063233;28;20095;-64
2022/03/09 07:07:04;;;;;;;13.68;9.35;;;30.80;99.90;;;;;;5065107;28;20056;-64
2022/03/09 07:09:31;;;;;;;9.95;8.25;;;31.00;99.90;;;;;;5065684;28;20075;-64
2022/03/09 07:11:58;;;;;;;15.55;8.60;;;31.00;99.90;;;;;;5068639;28;20108;-64
2022/03/09 07:14:24;;;;;;;13.13;9.02;;;31.20;99.90;;;;;;5069046;28;20036;-64
2022/03/09 07:16:51;;;;;;;15.93;8.90;;;31.10;99.90;;;;;;5073770;28;20035;-64
2022/03/09 07:19:18;;;;;;;14.90;8.13;;;31.20;99.90;;;;;;5073688;28;20441;-65
2022/03/09 07:21:44;;;;;;;12.18;8.25;;;31.20;99.90;;;;;;5073466;28;20515;-64
2022/03/09 07:24:11;;;;;;;10.65;8.80;;;31.20;99.90;;;;;;5074155;28;20428;-64
2022/03/09 07:26:41;;;;;;;17.10;9.57;;;31.20;99.90;;;;;;5074047;28;20085;-61
2022/03/09 07:29:11;;;;;;;16.20;10.50;;;31.30;99.90;;;;;;5073525;28;20108;-63
2022/03/09 07:31:39;;;;;;;120.82;86.35;;;31.30;99.90;;;;;;5072773;28;20056;-64
2022/03/09 07:34:06;;;;;;;15.13;11.48;;;31.40;99.90;;;;;;5073717;28;20017;-60
2022/03/09 07:36:33;;;;;;;20.85;10.07;;;31.40;99.90;;;;;;5071112;28;20028;-65
2022/03/09 07:39:00;;;;;;;22.75;10.73;;;31.40;99.90;;;;;;5073081;28;20493;-66
2022/03/09 07:41:26;;;;;;;21.08;13.65;;;31.50;99.90;;;;;;5073332;28;20028;-64
2022/03/09 07:43:53;;;;;;;19.42;10.20;;;31.50;99.90;;;;;;5081504;28;20385;-68
2022/03/09 07:46:20;;;;;;;11.85;8.82;;;31.60;99.90;;;;;;5090228;28;20477;-66
2022/03/09 07:48:46;;;;;;;10.60;9.35;;;31.60;99.90;;;;;;5066762;28;20039;-66
2022/03/09 07:51:13;;;;;;;11.25;9.68;;;31.50;99.90;;;;;;5071226;28;20117;-66
2022/03/09 07:53:42;;;;;;;11.98;8.48;;;31.60;99.90;;;;;;5064666;28;20036;-66
2022/03/09 07:56:13;;;;;;;10.82;8.95;;;31.70;99.60;;;;;;5070658;28;20036;-65
2022/03/09 07:58:40;;;;;;;12.75;9.60;;;31.70;99.90;;;;;;5073920;28;20064;-65
2022/03/09 08:01:07;;;;;;;28.27;16.15;;;31.70;99.90;;;;;;5073804;28;20082;-66
2022/03/09 08:03:34;;;;;;;29.27;21.50;;;31.80;99.90;;;;;;5073864;28;20021;-64
2022/03/09 08:06:01;;;;;;;42.40;30.23;;;31.80;98.70;;;;;;5073708;28;20088;-65
2022/03/09 08:08:28;;;;;;;20.70;15.32;;;31.60;98.50;;;;;;5074026;28;20020;-65
2022/03/09 08:10:55;;;;;;;14.38;10.60;;;31.70;99.40;;;;;;5072969;28;20036;-65
2022/03/09 08:13:22;;;;;;;13.13;8.85;;;31.80;99.90;;;;;;5060101;28;20033;-67
2022/03/09 08:15:49;;;;;;;14.27;11.23;;;31.80;99.30;;;;;;5061879;28;20107;-66
2022/03/09 08:18:16;;;;;;;65.55;47.35;;;31.90;99.50;;;;;;5071029;28;20021;-66
2022/03/09 08:20:42;;;;;;;53.88;42.55;;;31.90;98.90;;;;;;5070442;28;20119;-62
2022/03/09 08:23:10;;;;;;;32.78;25.83;;;31.90;98.10;;;;;;5066386;28;20024;-64
2022/03/09 08:25:36;;;;;;;16.83;13.50;;;32.00;98.50;;;;;;5074348;28;20016;-63
2022/03/09 08:28:04;;;;;;;24.63;19.83;;;32.00;97.90;;;;;;5074261;28;20028;-63
2022/03/09 08:30:30;;;;;;;91.32;65.43;;;32.00;98.70;;;;;;5068705;28;20041;-63
2022/03/09 08:32:57;;;;;;;45.80;34.63;;;32.00;98.20;;;;;;5073375;28;20029;-63
2022/03/09 08:35:24;;;;;;;17.55;14.63;;;31.90;98.00;;;;;;5071537;28;20136;-62
2022/03/09 08:37:53;;;;;;;20.08;15.73;;;31.90;98.10;;;;;;5071079;28;20025;-63
2022/03/09 08:40:20;;;;;;;16.83;14.25;;;32.00;98.60;;;;;;5071069;28;20033;-62
2022/03/09 08:42:47;;;;;;;79.07;18.15;;;32.00;98.30;;;;;;5071100;28;20093;-63
2022/03/09 08:45:14;;;;;;;25.15;15.30;;;32.10;97.00;;;;;;5072177;28;20035;-62
2022/03/09 08:47:41;;;;;;;21.50;15.68;;;32.00;97.60;;;;;;5072677;28;20024;-63
2022/03/09 08:50:09;;;;;;;21.67;16.08;;;32.00;97.40;;;;;;5073253;28;20028;-64
2022/03/09 08:52:36;;;;;;;27.92;15.93;;;32.00;97.00;;;;;;5067369;28;20033;-64
2022/03/09 08:55:04;;;;;;;59.70;48.25;;;32.00;97.40;;;;;;5071281;28;20021;-64
2022/03/09 08:57:31;;;;;;;143.50;103.15;;;32.00;96.80;;;;;;5069304;28;20056;-64
2022/03/09 09:00:01;;;;;;;60.92;45.72;;;32.00;97.00;;;;;;5071546;28;20036;-65
2022/03/09 09:02:28;;;;;;;56.90;47.88;;;32.00;97.50;;;;;;5069526;28;20044;-64
2022/03/09 09:04:55;;;;;;;24.83;15.68;;;32.00;97.50;;;;;;5071135;28;20017;-63
2022/03/09 09:07:22;;;;;;;18.38;13.88;;;32.00;96.80;;;;;;5068137;28;20029;-65
2022/03/09 09:09:49;;;;;;;15.48;11.80;;;32.10;96.20;;;;;;5069183;28;20035;-63
2022/03/09 09:12:16;;;;;;;15.63;12.30;;;32.00;95.90;;;;;;5068910;28;20025;-63
2022/03/09 09:14:42;;;;;;;14.02;11.48;;;32.00;96.00;;;;;;5072639;28;20029;-63
2022/03/09 09:17:09;;;;;;;24.00;15.60;;;32.00;95.70;;;;;;5071014;28;20460;-63
2022/03/09 09:19:36;;;;;;;41.60;28.80;;;32.00;95.70;;;;;;5068723;28;20039;-64
2022/03/09 09:22:03;;;;;;;168.55;116.60;;;32.00;94.80;;;;;;5066996;28;20028;-62
2022/03/09 09:24:30;;;;;;;411.42;308.77;;;31.90;94.30;;;;;;5070456;28;20032;-63
2022/03/09 09:26:57;;;;;;;314.33;221.07;;;31.90;94.40;;;;;;5067468;28;20044;-62
2022/03/09 09:29:24;;;;;;;60.38;45.88;;;31.90;94.00;;;;;;5073258;28;20039;-64
2022/03/09 09:31:51;;;;;;;31.15;22.98;;;31.90;94.70;;;;;;5069979;28;20062;-63
2022/03/09 09:34:18;;;;;;;104.63;50.60;;;31.90;94.90;;;;;;5072416;28;20025;-64
2022/03/09 09:36:46;;;;;;;76.32;45.60;;;32.00;94.50;;;;;;5068108;28;20036;-61
2022/03/09 09:39:15;;;;;;;46.40;28.13;;;32.00;94.10;;;;;;5072413;28;20089;-62
2022/03/09 09:41:44;;;;;;;30.58;16.27;;;31.90;94.40;;;;;;5070041;28;20439;-63
2022/03/09 09:44:11;;;;;;;99.75;39.05;;;32.00;94.00;;;;;;5074985;28;20024;-64
2022/03/09 09:46:39;;;;;;;81.00;43.70;;;31.90;93.80;;;;;;5075562;28;20470;-63
2022/03/09 09:49:09;;;;;;;217.50;114.03;;;32.00;93.70;;;;;;5075391;28;20461;-62
2022/03/09 09:51:40;;;;;;;106.65;52.25;;;32.00;93.30;;;;;;5075399;28;20032;-62
2022/03/09 09:54:06;;;;;;;171.05;91.80;;;32.00;92.90;;;;;;5075245;28;20025;-62
2022/03/09 09:56:38;;;;;;;128.23;64.93;;;32.00;92.80;;;;;;5075302;28;20020;-62
2022/03/09 09:59:08;;;;;;;;;;;31.90;92.20;;;;;;5076175;28;20043;-62
2022/03/09 10:01:36;;;;;;;246.93;134.80;;;31.80;92.20;;;;;;5074430;28;19908;-63
2022/03/09 10:04:05;;;;;;;215.85;126.93;;;31.80;93.10;;;;;;5075127;28;20059;-63
2022/03/09 10:06:31;;;;;;;124.43;73.70;;;31.80;93.40;;;;;;5073485;28;20028;-63
2022/03/09 10:09:04;;;;;;;458.73;251.30;;;31.90;94.30;;;;;;5075479;28;20051;-62
2022/03/09 10:11:54;;;;;;;90.00;50.45;;;31.80;92.80;;;;;;5074639;28;20496;-61
2022/03/09 10:14:28;;;;;;;273.23;133.05;;;31.80;93.60;;;;;;5075506;28;20040;-61
2022/03/09 10:17:00;;;;;;;221.68;120.80;;;31.80;93.10;;;;;;5075380;28;20088;-63
2022/03/09 10:19:32;;;;;;;210.13;113.35;;;31.70;93.90;;;;;;5075122;28;20044;-62
2022/03/09 10:21:58;;;;;;;;;;;31.80;93.70;;;;;;5073194;28;20033;-63
2022/03/09 10:24:35;;;;;;;22.75;16.92;;;31.70;93.70;;;;;;5055025;28;20289;-63
2022/03/09 10:27:02;;;;;;;79.25;46.33;;;31.80;94.00;;;;;;5065188;28;20029;-63
2022/03/09 10:29:28;;;;;;;119.80;69.10;;;31.70;93.20;;;;;;5061949;28;20094;-62
2022/03/09 10:31:59;;;;;;;49.20;33.28;;;31.60;93.80;;;;;;5074855;28;20055;-62
2022/03/09 10:34:27;;;;;;;47.50;32.35;;;31.50;93.50;;;;;;5074549;28;20056;-63
2022/03/09 10:36:57;;;;;;;50.60;29.90;;;31.50;94.30;;;;;;5074688;28;20040;-63
2022/03/09 10:39:28;;;;;;;79.32;50.60;;;31.60;94.70;;;;;;5074654;28;20021;-63
2022/03/09 10:41:58;;;;;;;69.10;38.58;;;31.50;95.00;;;;;;5065816;28;20393;-63
2022/03/09 10:44:42;;;;;;;139.85;97.28;;;31.50;95.20;;;;;;5064993;28;20048;-61
2022/03/09 10:47:09;;;;;;;79.03;53.53;;;31.50;95.50;;;;;;5074197;28;20492;-63
2022/03/09 10:49:36;;;;;;;71.03;49.00;;;31.40;95.90;;;;;;5066502;28;20040;-61
2022/03/09 10:52:04;;;;;;;73.45;51.80;;;31.40;96.10;;;;;;5056441;28;20113;-63
2022/03/09 10:54:35;;;;;;;64.60;47.30;;;31.30;96.50;;;;;;5067853;28;20463;-62
2022/03/09 10:57:12;;;;;;;65.50;46.20;;;31.30;96.60;;;;;;5066492;28;20028;-63
2022/03/09 10:59:49;;;;;;;124.40;90.07;;;31.30;96.60;;;;;;5070406;28;20392;-62
2022/03/09 11:02:19;;;;;;;49.80;38.38;;;31.20;97.00;;;;;;5067208;28;20108;-62
2022/03/09 11:05:06;;;;;;;46.47;31.92;;;31.20;96.90;;;;;;5063034;28;20031;-62
2022/03/09 11:07:35;;;;;;;46.83;29.00;;;31.10;97.20;;;;;;5068769;28;20072;-62
2022/03/09 11:10:03;;;;;;;47.90;30.88;;;31.10;97.60;;;;;;5061862;28;20032;-63
2022/03/09 11:12:30;;;;;;;43.25;28.55;;;31.00;97.50;;;;;;5074053;28;20028;-63
2022/03/09 11:14:58;;;;;;;46.60;29.77;;;31.00;97.70;;;;;;5067280;28;20028;-62
2022/03/09 11:17:25;;;;;;;47.38;32.28;;;31.00;97.80;;;;;;5073971;28;20107;-62
2022/03/09 11:19:53;;;;;;;59.20;38.55;;;31.00;97.80;;;;;;5062968;28;20049;-64
2022/03/09 11:22:19;;;;;;;56.08;37.92;;;31.00;98.00;;;;;;5073624;28;20374;-65
2022/03/09 11:24:48;;;;;;;55.65;33.33;;;31.00;98.00;;;;;;5067394;28;20024;-63
2022/03/09 11:27:16;;;;;;;39.55;31.42;;;31.00;97.90;;;;;;5071931;28;20017;-62
2022/03/09 11:29:43;;;;;;;46.03;31.98;;;31.00;98.20;;;;;;5071333;28;20024;-63
2022/03/09 11:32:14;;;;;;;46.72;33.72;;;31.00;98.40;;;;;;5073697;28;20036;-62
2022/03/09 11:34:44;;;;;;;57.70;38.42;;;31.00;99.10;;;;;;5066097;28;20082;-63
2022/03/09 11:37:14;;;;;;;83.25;63.72;;;31.00;99.40;;;;;;5069976;28;20115;-64
2022/03/09 11:40:00;;;;;;;71.40;54.70;;;31.00;99.50;;;;;;5068773;28;20481;-62
2022/03/09 11:42:28;;;;;;;80.47;59.00;;;30.90;99.60;;;;;;5061685;28;20067;-63
2022/03/09 11:45:15;;;;;;;82.15;61.15;;;30.90;99.90;;;;;;5073564;28;20077;-64
2022/03/09 11:48:03;;;;;;;82.72;57.42;;;31.00;99.90;;;;;;5073506;28;20028;-63
2022/03/09 11:50:33;;;;;;;80.53;52.78;;;30.90;99.90;;;;;;5072852;28;20489;-64
2022/03/09 11:53:06;;;;;;;74.70;50.47;;;30.90;99.90;;;;;;5073518;28;20039;-65
2022/03/09 11:55:36;;;;;;;88.65;56.80;;;30.90;99.90;;;;;;5073599;28;20059;-64
2022/03/09 11:58:05;;;;;;;85.35;55.00;;;30.90;99.90;;;;;;5073453;28;20028;-62
2022/03/09 12:00:32;;;;;;;79.75;50.65;;;30.80;99.90;;;;;;5076161;28;20055;-61
2022/03/09 12:02:59;;;;;;;71.30;47.50;;;30.70;99.90;;;;;;5077582;28;20028;-61
2022/03/09 12:05:26;;;;;;;72.80;46.75;;;30.70;99.90;;;;;;5077116;28;20377;-61
2022/03/09 12:07:55;;;;;;;73.38;46.92;;;30.70;99.90;;;;;;5066762;28;20021;-63
2022/03/09 12:10:42;;;;;;;74.22;47.65;;;30.70;99.90;;;;;;5062172;28;20499;-62
2022/03/09 12:13:17;;;;;;;79.25;50.40;;;30.70;99.90;;;;;;5072896;28;20025;-62
2022/03/09 12:16:05;;;;;;;161.35;109.07;;;30.70;99.90;;;;;;5066879;28;20051;-64
2022/03/09 12:18:33;;;;;;;132.10;84.60;;;30.70;99.90;;;;;;5075498;28;20062;-61
2022/03/09 12:21:00;;;;;;;122.78;78.93;;;30.60;99.90;;;;;;5076777;28;20045;-62
2022/03/09 12:23:26;;;;;;;131.35;88.18;;;30.50;99.90;;;;;;5077032;28;20516;-62
2022/03/09 12:25:53;;;;;;;119.38;72.13;;;30.50;99.90;;;;;;5076188;28;20029;-62
2022/03/09 12:28:28;;;;;;;104.38;60.92;;;30.50;99.90;;;;;;5076733;28;20444;-63
2022/03/09 12:31:07;;;;;;;84.15;56.45;;;30.50;99.90;;;;;;5076653;28;20060;-62
2022/03/09 12:33:36;;;;;;;84.60;54.45;;;30.50;99.90;;;;;;5076939;28;20058;-62
2022/03/09 12:36:16;;;;;;;114.20;66.70;;;30.50;99.90;;;;;;5076342;28;20439;-63
2022/03/09 12:38:49;;;;;;;101.70;66.97;;;30.40;99.90;;;;;;5077041;28;20476;-62